sensor_id;sensor_type;location;lat;lon;timestamp;pressure;altitude;pressure_sealevel;temperature;humidity
17230;BME280;8731;50.364;8.958;2023-04-01T00:02:58;98327.13;;;10.78;88.20
17230;BME280;8731;50.364;8.958;2023-04-01T00:07:22;98326.06;;;10.74;89.11
17230;BME280;8731;50.364;8.958;2023-04-01T00:11:45;98326.25;;;10.77;87.45
17230;BME280;8731;50.364;8.958;2023-04-01T00:16:07;98328.28;;;10.83;88.35
17230;BME280;8731;50.364;8.958;2023-04-01T00:20:30;98330.56;;;10.79;88.02
17230;BME280;8731;50.364;8.958;2023-04-01T00:24:54;98322.31;;;10.83;87.28
17230;BME280;8731;50.364;8.958;2023-04-01T00:29:16;98332.22;;;10.78;86.86
17230;BME280;8731;50.364;8.958;2023-04-01T00:33:39;98323.53;;;10.74;87.90
17230;BME280;8731;50.364;8.958;2023-04-01T00:38:02;98323.91;;;10.81;87.76
17230;BME280;8731;50.364;8.958;2023-04-01T00:42:26;98323.00;;;10.80;88.47
17230;BME280;8731;50.364;8.958;2023-04-01T00:46:49;98317.19;;;10.68;89.15
17230;BME280;8731;50.364;8.958;2023-04-01T00:51:15;98318.25;;;10.71;88.72
17230;BME280;8731;50.364;8.958;2023-04-01T00:55:43;98316.69;;;10.60;89.16
17230;BME280;8731;50.364;8.958;2023-04-01T01:00:14;98307.69;;;10.65;89.95
17230;BME280;8731;50.364;8.958;2023-04-01T01:04:38;98318.84;;;10.67;89.85
17230;BME280;8731;50.364;8.958;2023-04-01T01:09:10;98314.13;;;10.60;87.96
17230;BME280;8731;50.364;8.958;2023-04-01T01:13:53;98323.63;;;10.63;89.13
17230;BME280;8731;50.364;8.958;2023-04-01T01:18:27;98317.97;;;10.67;88.45
17230;BME280;8731;50.364;8.958;2023-04-01T01:23:22;98311.50;;;10.59;89.31
17230;BME280;8731;50.364;8.958;2023-04-01T01:28:19;98316.31;;;10.67;88.98
17230;BME280;8731;50.364;8.958;2023-04-01T01:33:20;98296.75;;;10.53;88.97
17230;BME280;8731;50.364;8.958;2023-04-01T01:38:00;98301.31;;;10.59;88.12
17230;BME280;8731;50.364;8.958;2023-04-01T01:42:27;98306.72;;;10.50;88.86
17230;BME280;8731;50.364;8.958;2023-04-01T01:46:51;98321.69;;;10.59;88.65
17230;BME280;8731;50.364;8.958;2023-04-01T01:51:14;98302.34;;;10.48;90.15
17230;BME280;8731;50.364;8.958;2023-04-01T01:55:40;98305.84;;;10.50;89.45
17230;BME280;8731;50.364;8.958;2023-04-01T02:00:06;98301.13;;;10.56;89.62
17230;BME280;8731;50.364;8.958;2023-04-01T02:04:37;98301.47;;;10.47;89.39
17230;BME280;8731;50.364;8.958;2023-04-01T02:09:04;98305.66;;;10.47;88.27
17230;BME280;8731;50.364;8.958;2023-04-01T02:13:37;98292.16;;;10.48;88.85
17230;BME280;8731;50.364;8.958;2023-04-01T02:18:02;98303.50;;;10.39;88.61
17230;BME280;8731;50.364;8.958;2023-04-01T02:22:27;98301.09;;;10.41;89.35
17230;BME280;8731;50.364;8.958;2023-04-01T02:26:53;98300.41;;;10.43;89.39
17230;BME280;8731;50.364;8.958;2023-04-01T02:31:17;98296.47;;;10.35;89.88
17230;BME280;8731;50.364;8.958;2023-04-01T02:35:39;98296.28;;;10.32;89.01
17230;BME280;8731;50.364;8.958;2023-04-01T02:40:03;98296.47;;;10.35;89.50
17230;BME280;8731;50.364;8.958;2023-04-01T02:44:27;98314.69;;;10.28;89.17
17230;BME280;8731;50.364;8.958;2023-04-01T02:48:51;98308.72;;;10.28;90.03
17230;BME280;8731;50.364;8.958;2023-04-01T02:53:14;98309.97;;;10.34;89.70
17230;BME280;8731;50.364;8.958;2023-04-01T02:57:36;98304.91;;;10.21;90.76
17230;BME280;8731;50.364;8.958;2023-04-01T03:01:58;98296.88;;;10.28;90.19
17230;BME280;8731;50.364;8.958;2023-04-01T03:06:22;98306.75;;;10.24;91.46
17230;BME280;8731;50.364;8.958;2023-04-01T03:10:44;98302.56;;;10.24;91.08
17230;BME280;8731;50.364;8.958;2023-04-01T03:15:10;98310.00;;;10.21;90.68
17230;BME280;8731;50.364;8.958;2023-04-01T03:19:34;98308.53;;;10.25;90.74
17230;BME280;8731;50.364;8.958;2023-04-01T03:24:02;98307.22;;;10.18;90.69
17230;BME280;8731;50.364;8.958;2023-04-01T03:28:25;98305.88;;;10.23;91.36
17230;BME280;8731;50.364;8.958;2023-04-01T03:32:47;98311.44;;;10.18;91.53
17230;BME280;8731;50.364;8.958;2023-04-01T03:37:09;98308.22;;;10.20;90.51
17230;BME280;8731;50.364;8.958;2023-04-01T03:41:35;98307.31;;;10.20;90.31
17230;BME280;8731;50.364;8.958;2023-04-01T03:45:58;98306.34;;;10.18;91.72
17230;BME280;8731;50.364;8.958;2023-04-01T03:50:20;98316.97;;;10.12;91.95
17230;BME280;8731;50.364;8.958;2023-04-01T03:54:43;98310.44;;;10.15;92.49
17230;BME280;8731;50.364;8.958;2023-04-01T03:59:07;98307.22;;;10.18;91.71
17230;BME280;8731;50.364;8.958;2023-04-01T04:03:30;98301.63;;;10.10;91.29
17230;BME280;8731;50.364;8.958;2023-04-01T04:07:53;98310.13;;;10.11;92.63
17230;BME280;8731;50.364;8.958;2023-04-01T04:12:16;98314.94;;;10.06;92.38
17230;BME280;8731;50.364;8.958;2023-04-01T04:16:40;98312.41;;;10.06;93.44
17230;BME280;8731;50.364;8.958;2023-04-01T04:21:02;98314.56;;;10.00;92.55
17230;BME280;8731;50.364;8.958;2023-04-01T04:25:25;98302.31;;;10.08;92.70
17230;BME280;8731;50.364;8.958;2023-04-01T04:29:48;98305.84;;;9.97;94.02
17230;BME280;8731;50.364;8.958;2023-04-01T04:34:12;98312.00;;;10.00;94.56
17230;BME280;8731;50.364;8.958;2023-04-01T04:38:34;98316.56;;;9.93;93.89
17230;BME280;8731;50.364;8.958;2023-04-01T04:42:57;98307.81;;;10.01;93.51
17230;BME280;8731;50.364;8.958;2023-04-01T04:47:19;98309.09;;;9.94;93.99
17230;BME280;8731;50.364;8.958;2023-04-01T04:51:43;98311.63;;;9.94;94.99
17230;BME280;8731;50.364;8.958;2023-04-01T04:56:08;98308.66;;;9.88;94.88
17230;BME280;8731;50.364;8.958;2023-04-01T05:00:42;98307.97;;;9.91;95.33
17230;BME280;8731;50.364;8.958;2023-04-01T05:05:13;98312.88;;;9.88;95.00
17230;BME280;8731;50.364;8.958;2023-04-01T05:09:36;98312.56;;;9.83;95.33
17230;BME280;8731;50.364;8.958;2023-04-01T05:13:59;98316.03;;;9.97;96.02
17230;BME280;8731;50.364;8.958;2023-04-01T05:18:25;98307.53;;;9.96;95.19
17230;BME280;8731;50.364;8.958;2023-04-01T05:22:48;98305.03;;;9.84;96.26
17230;BME280;8731;50.364;8.958;2023-04-01T05:27:12;98302.50;;;9.84;96.92
17230;BME280;8731;50.364;8.958;2023-04-01T05:31:36;98305.94;;;9.85;96.68
17230;BME280;8731;50.364;8.958;2023-04-01T05:36:06;98310.41;;;9.89;97.07
17230;BME280;8731;50.364;8.958;2023-04-01T05:40:30;98303.69;;;9.90;96.68
17230;BME280;8731;50.364;8.958;2023-04-01T05:44:54;98304.09;;;9.96;96.93
17230;BME280;8731;50.364;8.958;2023-04-01T05:49:52;98309.34;;;9.85;97.42
17230;BME280;8731;50.364;8.958;2023-04-01T05:54:15;98307.72;;;9.99;97.71
17230;BME280;8731;50.364;8.958;2023-04-01T05:58:39;98304.09;;;9.96;97.00
17230;BME280;8731;50.364;8.958;2023-04-01T06:03:04;98297.91;;;9.92;97.17
17230;BME280;8731;50.364;8.958;2023-04-01T06:07:27;98312.00;;;10.00;95.82
17230;BME280;8731;50.364;8.958;2023-04-01T06:12:33;98309.84;;;9.93;97.30
17230;BME280;8731;50.364;8.958;2023-04-01T06:17:15;98302.72;;;10.01;96.61
17230;BME280;8731;50.364;8.958;2023-04-01T06:22:17;98309.56;;;10.02;95.40
17230;BME280;8731;50.364;8.958;2023-04-01T06:27:16;98309.16;;;10.09;94.98
17230;BME280;8731;50.364;8.958;2023-04-01T06:32:07;98307.81;;;10.01;96.10
17230;BME280;8731;50.364;8.958;2023-04-01T06:37:00;98321.69;;;10.06;94.97
17230;BME280;8731;50.364;8.958;2023-04-01T06:42:17;98310.03;;;10.09;95.22
17230;BME280;8731;50.364;8.958;2023-04-01T06:46:54;98319.16;;;10.19;95.91
17230;BME280;8731;50.364;8.958;2023-04-01T06:51:43;98316.25;;;10.26;95.55
17230;BME280;8731;50.364;8.958;2023-04-01T06:56:36;98316.44;;;10.29;95.89
17230;BME280;8731;50.364;8.958;2023-04-01T07:01:10;98311.94;;;10.25;94.48
17230;BME280;8731;50.364;8.958;2023-04-01T07:05:39;98310.56;;;10.30;95.52
17230;BME280;8731;50.364;8.958;2023-04-01T07:10:05;98317.63;;;10.21;94.80
17230;BME280;8731;50.364;8.958;2023-04-01T07:14:55;98312.50;;;10.34;93.97
17230;BME280;8731;50.364;8.958;2023-04-01T07:19:24;98307.44;;;10.48;94.27
17230;BME280;8731;50.364;8.958;2023-04-01T07:24:04;98322.09;;;10.38;95.42
17230;BME280;8731;50.364;8.958;2023-04-01T07:28:36;98317.88;;;10.52;94.07
17230;BME280;8731;50.364;8.958;2023-04-01T07:33:21;98319.38;;;10.49;94.51
17230;BME280;8731;50.364;8.958;2023-04-01T07:38:05;98320.63;;;10.55;94.77
17230;BME280;8731;50.364;8.958;2023-04-01T07:42:47;98328.16;;;10.54;94.10
17230;BME280;8731;50.364;8.958;2023-04-01T07:47:28;98322.38;;;10.56;94.15
17230;BME280;8731;50.364;8.958;2023-04-01T07:52:23;98334.59;;;10.62;94.22
17230;BME280;8731;50.364;8.958;2023-04-01T07:57:02;98340.38;;;10.72;92.80
17230;BME280;8731;50.364;8.958;2023-04-01T08:01:46;98338.47;;;10.83;93.22
17230;BME280;8731;50.364;8.958;2023-04-01T08:06:19;98345.13;;;10.94;92.74
17230;BME280;8731;50.364;8.958;2023-04-01T08:10:56;98347.59;;;10.80;92.51
17230;BME280;8731;50.364;8.958;2023-04-01T08:15:49;98340.41;;;10.87;91.74
17230;BME280;8731;50.364;8.958;2023-04-01T08:20:37;98355.31;;;10.94;91.99
17230;BME280;8731;50.364;8.958;2023-04-01T08:25:06;98352.22;;;11.13;91.05
17230;BME280;8731;50.364;8.958;2023-04-01T08:29:42;98355.44;;;11.11;92.19
17230;BME280;8731;50.364;8.958;2023-04-01T08:34:14;98351.69;;;11.19;91.76
17230;BME280;8731;50.364;8.958;2023-04-01T08:38:43;98351.53;;;11.16;90.83
17230;BME280;8731;50.364;8.958;2023-04-01T08:43:16;98347.91;;;11.12;91.13
17230;BME280;8731;50.364;8.958;2023-04-01T08:48:07;98357.19;;;11.12;90.51
17230;BME280;8731;50.364;8.958;2023-04-01T08:53:12;98350.16;;;11.07;91.53
17230;BME280;8731;50.364;8.958;2023-04-01T08:57:55;98361.81;;;11.32;91.98
17230;BME280;8731;50.364;8.958;2023-04-01T09:02:51;98355.81;;;11.17;91.19
17230;BME280;8731;50.364;8.958;2023-04-01T09:07:40;98372.97;;;11.19;91.85
17230;BME280;8731;50.364;8.958;2023-04-01T09:12:28;98367.34;;;11.25;89.91
17230;BME280;8731;50.364;8.958;2023-04-01T09:22:23;98365.16;;;11.31;91.46
17230;BME280;8731;50.364;8.958;2023-04-01T09:27:02;98368.56;;;11.45;91.09
17230;BME280;8731;50.364;8.958;2023-04-01T09:31:41;98375.22;;;11.43;91.32
17230;BME280;8731;50.364;8.958;2023-04-01T09:36:45;98373.13;;;11.50;90.30
17230;BME280;8731;50.364;8.958;2023-04-01T09:41:21;98376.66;;;11.52;90.67
17230;BME280;8731;50.364;8.958;2023-04-01T09:46:23;98378.59;;;11.56;90.74
17230;BME280;8731;50.364;8.958;2023-04-01T09:51:01;98383.31;;;11.50;90.59
17230;BME280;8731;50.364;8.958;2023-04-01T10:01:27;98393.03;;;11.71;91.10
17230;BME280;8731;50.364;8.958;2023-04-01T10:11:30;98392.59;;;11.78;90.31
17230;BME280;8731;50.364;8.958;2023-04-01T10:16:40;98388.88;;;11.86;91.37
17230;BME280;8731;50.364;8.958;2023-04-01T10:21:45;98391.38;;;11.71;91.94
17230;BME280;8731;50.364;8.958;2023-04-01T10:27:03;98392.72;;;11.79;93.04
17230;BME280;8731;50.364;8.958;2023-04-01T10:32:25;98393.78;;;11.83;94.59
17230;BME280;8731;50.364;8.958;2023-04-01T10:37:27;98395.56;;;11.84;93.24
17230;BME280;8731;50.364;8.958;2023-04-01T10:47:57;98394.09;;;11.74;94.33
17230;BME280;8731;50.364;8.958;2023-04-01T10:53:17;98386.94;;;11.96;95.41
17230;BME280;8731;50.364;8.958;2023-04-01T11:09:32;98394.09;;;11.74;98.30
17230;BME280;8731;50.364;8.958;2023-04-01T11:14:48;98404.63;;;11.93;98.15
17230;BME280;8731;50.364;8.958;2023-04-01T11:20:07;98403.66;;;11.91;97.66
17230;BME280;8731;50.364;8.958;2023-04-01T11:25:06;98398.63;;;11.78;98.42
17230;BME280;8731;50.364;8.958;2023-04-01T11:30:24;98408.31;;;11.98;99.15
17230;BME280;8731;50.364;8.958;2023-04-01T11:39:58;98417.41;;;12.08;98.71
17230;BME280;8731;50.364;8.958;2023-04-01T11:45:10;98415.28;;;12.16;97.90
17230;BME280;8731;50.364;8.958;2023-04-01T11:49:49;98418.59;;;12.00;100.00
17230;BME280;8731;50.364;8.958;2023-04-01T11:55:02;98414.22;;;12.12;100.00
17230;BME280;8731;50.364;8.958;2023-04-01T11:59:51;98416.94;;;12.01;99.26
17230;BME280;8731;50.364;8.958;2023-04-01T12:05:12;98426.78;;;12.24;100.00
17230;BME280;8731;50.364;8.958;2023-04-01T12:09:58;98428.47;;;12.09;99.15
17230;BME280;8731;50.364;8.958;2023-04-01T12:14:36;98434.03;;;12.31;99.33
17230;BME280;8731;50.364;8.958;2023-04-01T12:19:15;98435.72;;;12.31;98.40
17230;BME280;8731;50.364;8.958;2023-04-01T12:24:03;98440.59;;;12.27;100.00
17230;BME280;8731;50.364;8.958;2023-04-01T12:28:59;98440.25;;;12.51;99.61
17230;BME280;8731;50.364;8.958;2023-04-01T12:33:53;98454.44;;;12.46;99.34
17230;BME280;8731;50.364;8.958;2023-04-01T12:38:51;98448.63;;;12.63;99.00
17230;BME280;8731;50.364;8.958;2023-04-01T12:44:00;98448.88;;;12.68;99.01
17230;BME280;8731;50.364;8.958;2023-04-01T12:49:01;98450.84;;;12.57;97.17
17230;BME280;8731;50.364;8.958;2023-04-01T12:59:14;98450.09;;;12.74;97.51
17230;BME280;8731;50.364;8.958;2023-04-01T13:09:23;98455.34;;;12.77;97.02
17230;BME280;8731;50.364;8.958;2023-04-01T13:18:59;98463.81;;;12.76;97.16
17230;BME280;8731;50.364;8.958;2023-04-01T13:23:37;98469.47;;;12.71;97.89
17230;BME280;8731;50.364;8.958;2023-04-01T13:28:14;98462.94;;;12.90;97.61
17230;BME280;8731;50.364;8.958;2023-04-01T13:32:47;98472.19;;;12.88;96.65
17230;BME280;8731;50.364;8.958;2023-04-01T13:37:25;98471.06;;;12.83;96.91
17230;BME280;8731;50.364;8.958;2023-04-01T13:42:12;98474.91;;;12.91;96.67
17230;BME280;8731;50.364;8.958;2023-04-01T13:47:13;98469.56;;;12.72;96.43
17230;BME280;8731;50.364;8.958;2023-04-01T13:52:16;98475.44;;;12.71;95.24
17230;BME280;8731;50.364;8.958;2023-04-01T13:57:14;98488.69;;;12.64;97.37
17230;BME280;8731;50.364;8.958;2023-04-01T14:01:54;98494.50;;;12.62;97.77
17230;BME280;8731;50.364;8.958;2023-04-01T14:06:31;98489.00;;;12.70;98.55
17230;BME280;8731;50.364;8.958;2023-04-01T14:11:10;98485.66;;;12.71;98.11
17230;BME280;8731;50.364;8.958;2023-04-01T14:15:58;98495.97;;;12.73;99.08
17230;BME280;8731;50.364;8.958;2023-04-01T14:20:38;98486.00;;;12.77;98.74
17230;BME280;8731;50.364;8.958;2023-04-01T14:25:27;98493.19;;;12.99;98.41
17230;BME280;8731;50.364;8.958;2023-04-01T14:30:27;98489.75;;;12.99;98.94
17230;BME280;8731;50.364;8.958;2023-04-01T14:35:11;98488.63;;;12.94;100.00
17230;BME280;8731;50.364;8.958;2023-04-01T14:40:27;98497.44;;;12.99;99.12
17230;BME280;8731;50.364;8.958;2023-04-01T14:45:05;98497.25;;;12.96;99.09
17230;BME280;8731;50.364;8.958;2023-04-01T14:50:06;98505.09;;;12.99;98.18
17230;BME280;8731;50.364;8.958;2023-04-01T14:54:36;98501.50;;;12.95;98.89
17230;BME280;8731;50.364;8.958;2023-04-01T14:59:08;98502.63;;;13.00;100.00
17230;BME280;8731;50.364;8.958;2023-04-01T15:03:38;98508.44;;;13.27;100.00
17230;BME280;8731;50.364;8.958;2023-04-01T15:08:17;98504.53;;;13.34;100.00
17230;BME280;8731;50.364;8.958;2023-04-01T15:12:53;98511.50;;;13.36;99.94
17230;BME280;8731;50.364;8.958;2023-04-01T15:17:53;98505.06;;;13.59;97.02
17230;BME280;8731;50.364;8.958;2023-04-01T15:22:41;98493.66;;;13.85;97.74
17230;BME280;8731;50.364;8.958;2023-04-01T15:27:21;98499.50;;;13.82;95.22
17230;BME280;8731;50.364;8.958;2023-04-01T15:31:55;98501.16;;;13.49;94.07
17230;BME280;8731;50.364;8.958;2023-04-01T15:36:33;98515.63;;;13.65;95.15
17230;BME280;8731;50.364;8.958;2023-04-01T15:41:13;98519.38;;;13.56;93.46
17230;BME280;8731;50.364;8.958;2023-04-01T15:45:47;98524.28;;;13.36;95.23
17230;BME280;8731;50.364;8.958;2023-04-01T15:50:34;98524.34;;;13.38;95.09
17230;BME280;8731;50.364;8.958;2023-04-01T15:55:26;98530.09;;;13.34;96.38
17230;BME280;8731;50.364;8.958;2023-04-01T16:00:10;98557.50;;;13.36;96.21
17230;BME280;8731;50.364;8.958;2023-04-01T16:04:47;98581.84;;;12.85;95.91
17230;BME280;8731;50.364;8.958;2023-04-01T16:09:39;98581.84;;;12.85;91.71
17230;BME280;8731;50.364;8.958;2023-04-01T16:14:30;98589.69;;;12.88;91.69
17230;BME280;8731;50.364;8.958;2023-04-01T16:19:19;98598.75;;;12.83;90.74
17230;BME280;8731;50.364;8.958;2023-04-01T16:23:57;98612.47;;;12.71;89.90
17230;BME280;8731;50.364;8.958;2023-04-01T16:28:29;98620.56;;;12.64;90.58
17230;BME280;8731;50.364;8.958;2023-04-01T16:33:02;98616.78;;;12.72;90.62
17230;BME280;8731;50.364;8.958;2023-04-01T16:37:33;98614.31;;;12.73;91.20
17230;BME280;8731;50.364;8.958;2023-04-01T16:42:15;98622.25;;;12.63;92.02
17230;BME280;8731;50.364;8.958;2023-04-01T16:46:52;98627.97;;;12.59;92.73
17230;BME280;8731;50.364;8.958;2023-04-01T16:51:19;98630.91;;;12.52;92.61
17230;BME280;8731;50.364;8.958;2023-04-01T16:55:49;98640.50;;;12.41;94.31
17230;BME280;8731;50.364;8.958;2023-04-01T17:00:17;98651.78;;;12.45;93.57
17230;BME280;8731;50.364;8.958;2023-04-01T17:04:47;98655.19;;;12.31;94.10
17230;BME280;8731;50.364;8.958;2023-04-01T17:09:26;98665.06;;;12.39;94.61
17230;BME280;8731;50.364;8.958;2023-04-01T17:14:10;98669.19;;;12.24;94.60
17230;BME280;8731;50.364;8.958;2023-04-01T17:18:45;98677.13;;;12.28;94.87
17230;BME280;8731;50.364;8.958;2023-04-01T17:23:22;98685.03;;;12.46;94.13
17230;BME280;8731;50.364;8.958;2023-04-01T17:27:59;98685.69;;;12.29;95.16
17230;BME280;8731;50.364;8.958;2023-04-01T17:32:39;98690.50;;;12.24;95.07
17230;BME280;8731;50.364;8.958;2023-04-01T17:37:37;98698.75;;;12.20;95.77
17230;BME280;8731;50.364;8.958;2023-04-01T17:42:12;98700.72;;;12.24;96.07
17230;BME280;8731;50.364;8.958;2023-04-01T17:46:48;98708.41;;;12.11;95.99
17230;BME280;8731;50.364;8.958;2023-04-01T17:51:24;98726.63;;;12.04;96.48
17230;BME280;8731;50.364;8.958;2023-04-01T17:56:05;98730.06;;;12.18;96.53
17230;BME280;8731;50.364;8.958;2023-04-01T18:00:46;98742.94;;;11.93;97.67
17230;BME280;8731;50.364;8.958;2023-04-01T18:05:38;98755.44;;;11.77;96.42
17230;BME280;8731;50.364;8.958;2023-04-01T18:10:25;98763.09;;;11.77;96.90
17230;BME280;8731;50.364;8.958;2023-04-01T18:15:12;98771.25;;;11.71;96.38
17230;BME280;8731;50.364;8.958;2023-04-01T18:19:50;98780.06;;;11.76;96.11
17230;BME280;8731;50.364;8.958;2023-04-01T18:24:49;98782.72;;;11.78;96.30
17230;BME280;8731;50.364;8.958;2023-04-01T18:29:27;98805.56;;;11.76;96.21
17230;BME280;8731;50.364;8.958;2023-04-01T18:34:02;98811.75;;;11.66;97.78
17230;BME280;8731;50.364;8.958;2023-04-01T18:38:31;98808.09;;;11.63;95.94
17230;BME280;8731;50.364;8.958;2023-04-01T18:43:10;98822.53;;;11.76;97.13
17230;BME280;8731;50.364;8.958;2023-04-01T18:47:43;98825.09;;;11.76;97.93
17230;BME280;8731;50.364;8.958;2023-04-01T18:52:17;98831.75;;;11.74;98.11
17230;BME280;8731;50.364;8.958;2023-04-01T18:56:44;98834.50;;;11.77;97.25
17230;BME280;8731;50.364;8.958;2023-04-01T19:01:15;98852.16;;;11.74;97.99
17230;BME280;8731;50.364;8.958;2023-04-01T19:05:46;98853.22;;;11.77;97.63
17230;BME280;8731;50.364;8.958;2023-04-01T19:10:33;98856.47;;;11.75;97.66
17230;BME280;8731;50.364;8.958;2023-04-01T19:15:19;98856.56;;;11.76;98.23
17230;BME280;8731;50.364;8.958;2023-04-01T19:19:51;98858.81;;;11.72;97.51
17230;BME280;8731;50.364;8.958;2023-04-01T19:24:53;98865.69;;;11.73;97.68
17230;BME280;8731;50.364;8.958;2023-04-01T19:29:42;98877.25;;;11.67;97.57
17230;BME280;8731;50.364;8.958;2023-04-01T19:34:25;98877.94;;;11.65;98.25
17230;BME280;8731;50.364;8.958;2023-04-01T19:39:08;98880.78;;;11.69;98.21
17230;BME280;8731;50.364;8.958;2023-04-01T19:43:50;98885.09;;;11.71;99.02
17230;BME280;8731;50.364;8.958;2023-04-01T19:48:34;98885.81;;;11.56;99.83
17230;BME280;8731;50.364;8.958;2023-04-01T19:53:13;98897.28;;;11.50;100.00
17230;BME280;8731;50.364;8.958;2023-04-01T19:57:47;98903.16;;;11.49;100.00
17230;BME280;8731;50.364;8.958;2023-04-01T20:02:34;98903.25;;;11.50;100.00
17230;BME280;8731;50.364;8.958;2023-04-01T20:07:07;98907.84;;;11.43;100.00
17230;BME280;8731;50.364;8.958;2023-04-01T20:11:44;98915.91;;;11.49;100.00
17230;BME280;8731;50.364;8.958;2023-04-01T20:16:18;98922.28;;;11.55;100.00
17230;BME280;8731;50.364;8.958;2023-04-01T20:20:53;98936.28;;;11.49;100.00
17230;BME280;8731;50.364;8.958;2023-04-01T20:25:21;98943.09;;;11.36;100.00
17230;BME280;8731;50.364;8.958;2023-04-01T20:29:56;98954.69;;;11.45;100.00
17230;BME280;8731;50.364;8.958;2023-04-01T20:35:11;98952.50;;;11.37;100.00
17230;BME280;8731;50.364;8.958;2023-04-01T20:40:02;98962.25;;;11.43;100.00
17230;BME280;8731;50.364;8.958;2023-04-01T20:44:46;98968.34;;;11.33;100.00
17230;BME280;8731;50.364;8.958;2023-04-01T20:49:46;98973.22;;;11.30;100.00
17230;BME280;8731;50.364;8.958;2023-04-01T20:54:33;98979.56;;;11.24;100.00
17230;BME280;8731;50.364;8.958;2023-04-01T20:59:24;98982.44;;;11.28;100.00
17230;BME280;8731;50.364;8.958;2023-04-01T21:04:09;98979.13;;;11.18;100.00
17230;BME280;8731;50.364;8.958;2023-04-01T21:08:56;98985.44;;;11.23;100.00
17230;BME280;8731;50.364;8.958;2023-04-01T21:13:44;98994.63;;;11.21;100.00
17230;BME280;8731;50.364;8.958;2023-04-01T21:18:34;98996.97;;;11.18;100.00
17230;BME280;8731;50.364;8.958;2023-04-01T21:23:30;99002.63;;;11.14;100.00
17230;BME280;8731;50.364;8.958;2023-04-01T21:33:05;99031.66;;;11.16;100.00
17230;BME280;8731;50.364;8.958;2023-04-01T21:38:00;99031.88;;;11.19;100.00
17230;BME280;8731;50.364;8.958;2023-04-01T21:42:41;99043.81;;;11.20;100.00
17230;BME280;8731;50.364;8.958;2023-04-01T21:47:59;99051.34;;;11.18;100.00
17230;BME280;8731;50.364;8.958;2023-04-01T21:58:33;99058.88;;;11.17;100.00
17230;BME280;8731;50.364;8.958;2023-04-01T22:03:46;99066.53;;;11.17;100.00
17230;BME280;8731;50.364;8.958;2023-04-01T22:08:45;99069.09;;;11.17;100.00
17230;BME280;8731;50.364;8.958;2023-04-01T22:13:35;99074.41;;;11.20;100.00
17230;BME280;8731;50.364;8.958;2023-04-01T22:18:08;99075.84;;;11.16;100.00
17230;BME280;8731;50.364;8.958;2023-04-01T22:22:52;99082.13;;;11.10;100.00
17230;BME280;8731;50.364;8.958;2023-04-01T22:27:27;99085.81;;;11.13;100.00
17230;BME280;8731;50.364;8.958;2023-04-01T22:32:01;99099.44;;;11.14;100.00
17230;BME280;8731;50.364;8.958;2023-04-01T22:36:33;99104.53;;;11.14;100.00
17230;BME280;8731;50.364;8.958;2023-04-01T22:41:08;99094.56;;;11.17;100.00
17230;BME280;8731;50.364;8.958;2023-04-01T22:45:58;99104.94;;;11.08;100.00
17230;BME280;8731;50.364;8.958;2023-04-01T22:50:39;99108.59;;;11.12;100.00
17230;BME280;8731;50.364;8.958;2023-04-01T22:55:13;99108.97;;;11.16;100.00
17230;BME280;8731;50.364;8.958;2023-04-01T22:59:46;99122.38;;;11.14;100.00
17230;BME280;8731;50.364;8.958;2023-04-01T23:04:16;99121.44;;;11.01;100.00
17230;BME280;8731;50.364;8.958;2023-04-01T23:08:56;99129.53;;;11.07;100.00
17230;BME280;8731;50.364;8.958;2023-04-01T23:13:32;99139.38;;;11.03;100.00
17230;BME280;8731;50.364;8.958;2023-04-01T23:22:56;99144.16;;;10.98;100.00
17230;BME280;8731;50.364;8.958;2023-04-01T23:27:32;99148.69;;;11.02;100.00
17230;BME280;8731;50.364;8.958;2023-04-01T23:32:01;99157.66;;;10.97;100.00
17230;BME280;8731;50.364;8.958;2023-04-01T23:36:26;99161.66;;;11.05;100.00
17230;BME280;8731;50.364;8.958;2023-04-01T23:40:53;99161.41;;;11.02;100.00
17230;BME280;8731;50.364;8.958;2023-04-01T23:45:18;99175.25;;;11.06;100.00
17230;BME280;8731;50.364;8.958;2023-04-01T23:49:44;99178.47;;;11.03;100.00
17230;BME280;8731;50.364;8.958;2023-04-01T23:54:14;99180.03;;;11.01;100.00
17230;BME280;8731;50.364;8.958;2023-04-01T23:58:44;99177.69;;;11.04;100.00
